Time;durP1;ratioP1;P1;durP2;ratioP2;P2;SDS_P1;SDS_P2;PMS_P1;PMS_P2;Temp;Humidity;BMP_temperature;BMP_pressure;BME280_temperature;BME280_humidity;BME280_pressure;Samples;Min_cycle;Max_cycle;Signal;HPM_P1;HPM_P2
2022/12/09 00:01:05;;;;;;;39.57;24.40;;;2.70;99.90;;;;;;5021564;28;20228;-74
2022/12/09 00:03:56;;;;;;;37.73;24.13;;;2.80;99.90;;;;;;5042783;28;20223;-74
2022/12/09 00:06:45;;;;;;;40.00;23.83;;;2.70;99.90;;;;;;5026604;28;20228;-78
2022/12/09 00:09:34;;;;;;;36.93;23.90;;;2.60;99.90;;;;;;5039735;28;20715;-78
2022/12/09 00:12:23;;;;;;;40.90;24.27;;;2.70;99.90;;;;;;5017997;28;20224;-75
2022/12/09 00:15:12;;;;;;;40.20;24.43;;;2.70;99.90;;;;;;5040165;28;20213;-75
2022/12/09 00:18:00;;;;;;;42.60;23.97;;;2.70;99.90;;;;;;5039140;28;20232;-76
2022/12/09 00:20:51;;;;;;;40.93;24.40;;;2.70;99.90;;;;;;5041626;28;20631;-76
2022/12/09 00:23:39;;;;;;;39.57;24.23;;;2.80;99.90;;;;;;5058905;28;20227;-77
2022/12/09 00:26:29;;;;;;;36.90;23.50;;;2.70;99.90;;;;;;5054097;28;20233;-76
2022/12/09 00:29:18;;;;;;;40.50;24.03;;;2.70;99.90;;;;;;5042466;28;20785;-76
2022/12/09 00:32:07;;;;;;;44.47;24.83;;;2.70;99.90;;;;;;5043131;28;20288;-76
2022/12/09 00:34:55;;;;;;;42.17;23.80;;;2.70;99.90;;;;;;5059746;28;20223;-75
2022/12/09 00:37:46;;;;;;;36.47;22.50;;;2.70;99.90;;;;;;5040979;28;20243;-76
2022/12/09 00:40:36;;;;;;;40.07;24.00;;;2.70;99.90;;;;;;5045007;28;20288;-77
2022/12/09 00:43:25;;;;;;;39.53;24.37;;;2.70;99.90;;;;;;5042150;28;20220;-76
2022/12/09 00:46:14;;;;;;;38.33;23.33;;;2.60;99.90;;;;;;5039390;28;20279;-76
2022/12/09 00:49:04;;;;;;;38.50;24.00;;;2.60;99.90;;;;;;5043893;28;20228;-77
2022/12/09 00:51:53;;;;;;;38.57;23.63;;;2.60;99.90;;;;;;5043054;28;20333;-76
2022/12/09 00:54:48;;;;;;;42.37;24.40;;;2.60;99.90;;;;;;5041822;28;20231;-77
2022/12/09 00:57:37;;;;;;;42.13;24.37;;;2.60;99.90;;;;;;5037400;28;20224;-76
2022/12/09 01:00:25;;;;;;;38.70;23.67;;;2.60;99.90;;;;;;5045153;28;20224;-75
2022/12/09 01:03:15;;;;;;;39.87;24.70;;;2.60;99.90;;;;;;5042847;28;21826;-76
2022/12/09 01:06:09;;;;;;;40.70;24.47;;;2.50;99.90;;;;;;5042758;28;20215;-77
2022/12/09 01:08:58;;;;;;;37.17;23.43;;;2.60;99.90;;;;;;5056417;28;20733;-77
2022/12/09 01:11:49;;;;;;;40.63;23.60;;;2.60;99.90;;;;;;5038946;28;20230;-76
2022/12/09 01:14:37;;;;;;;39.43;24.57;;;2.50;99.90;;;;;;5054235;28;20364;-75
2022/12/09 01:17:26;;;;;;;38.97;23.47;;;2.60;99.90;;;;;;5057696;28;20227;-76
2022/12/09 01:20:15;;;;;;;37.80;23.43;;;2.60;99.90;;;;;;5046250;28;20231;-75
2022/12/09 01:23:04;;;;;;;37.93;23.73;;;2.70;99.90;;;;;;5023705;28;20228;-75
2022/12/09 01:25:53;;;;;;;40.57;23.80;;;2.60;99.90;;;;;;5034595;28;20226;-74
2022/12/09 01:28:44;;;;;;;40.23;23.67;;;2.70;99.90;;;;;;5037194;28;20763;-75
2022/12/09 01:31:32;;;;;;;38.17;23.13;;;2.60;99.90;;;;;;5025474;28;20225;-76
2022/12/09 01:34:23;;;;;;;38.10;23.60;;;2.60;99.90;;;;;;5019555;28;20314;-75
2022/12/09 01:37:13;;;;;;;41.33;24.67;;;2.60;99.90;;;;;;5019187;28;20231;-75
2022/12/09 01:40:05;;;;;;;38.33;23.93;;;2.70;99.90;;;;;;5037864;28;20226;-75
2022/12/09 01:42:54;;;;;;;37.90;24.07;;;2.70;99.90;;;;;;5022987;28;20636;-75
2022/12/09 01:45:46;;;;;;;38.13;23.53;;;2.60;99.90;;;;;;5037596;28;20229;-75
2022/12/09 01:48:38;;;;;;;43.50;24.80;;;2.60;99.90;;;;;;5021876;28;20318;-77
2022/12/09 01:51:28;;;;;;;41.10;23.27;;;2.50;99.90;;;;;;5026379;28;20227;-77
2022/12/09 01:54:19;;;;;;;40.10;23.40;;;2.60;99.90;;;;;;5018393;28;20227;-75
2022/12/09 01:57:08;;;;;;;40.13;24.57;;;2.60;99.90;;;;;;5023427;28;20238;-76
2022/12/09 01:59:57;;;;;;;40.30;23.50;;;2.60;99.90;;;;;;5019482;28;20224;-76
2022/12/09 02:02:50;;;;;;;40.97;24.17;;;2.50;99.90;;;;;;5035405;28;20735;-76
2022/12/09 02:05:39;;;;;;;38.27;23.03;;;2.50;99.90;;;;;;5023203;28;20231;-77
2022/12/09 02:08:29;;;;;;;38.17;23.70;;;2.60;99.90;;;;;;5019302;28;20221;-75
2022/12/09 02:11:28;;;;;;;40.37;24.50;;;2.60;99.90;;;;;;5016873;28;20230;-76
2022/12/09 02:14:24;;;;;;;41.60;24.33;;;2.60;99.90;;;;;;5022457;28;20235;-76
2022/12/09 02:17:25;;;;;;;40.63;24.37;;;2.60;99.90;;;;;;5015886;28;20239;-76
2022/12/09 02:20:23;;;;;;;39.13;24.13;;;2.50;99.90;;;;;;5039750;28;20574;-77
2022/12/09 02:23:22;;;;;;;40.43;25.03;;;2.50;99.90;;;;;;5035385;28;20646;-77
2022/12/09 02:26:21;;;;;;;39.73;24.97;;;2.50;99.90;;;;;;5057211;28;20603;-77
2022/12/09 02:29:25;;;;;;;38.97;24.20;;;2.50;99.90;;;;;;5040765;28;20227;-76
2022/12/09 02:32:33;;;;;;;42.43;25.03;;;2.50;99.90;;;;;;5040420;28;20610;-76
2022/12/09 02:35:30;;;;;;;38.63;23.57;;;2.50;99.90;;;;;;5055333;28;20596;-76
2022/12/09 02:38:23;;;;;;;42.80;24.50;;;2.50;99.90;;;;;;5042100;28;20225;-74
2022/12/09 02:41:16;;;;;;;42.77;24.57;;;2.50;99.90;;;;;;5040808;28;20259;-75
2022/12/09 02:44:13;;;;;;;43.10;26.43;;;2.40;99.90;;;;;;5042428;28;20308;-75
2022/12/09 02:47:04;;;;;;;40.53;24.80;;;2.30;99.90;;;;;;5039464;28;20224;-75
2022/12/09 02:49:58;;;;;;;42.27;24.93;;;2.40;99.90;;;;;;5040650;28;20705;-75
2022/12/09 02:52:49;;;;;;;39.37;24.60;;;2.40;99.90;;;;;;5043510;28;20227;-75
2022/12/09 02:55:40;;;;;;;46.47;26.20;;;2.40;99.90;;;;;;5039470;28;20599;-75
2022/12/09 02:58:29;;;;;;;43.80;26.37;;;2.40;99.90;;;;;;5046134;28;20226;-77
2022/12/09 03:01:23;;;;;;;45.57;25.83;;;2.30;99.90;;;;;;5039231;28;20221;-77
2022/12/09 03:04:18;;;;;;;43.90;24.60;;;2.30;99.90;;;;;;5053656;28;20258;-77
2022/12/09 03:07:15;;;;;;;38.77;24.00;;;2.40;99.90;;;;;;5053780;28;20236;-77
2022/12/09 03:10:10;;;;;;;42.63;25.27;;;2.30;99.90;;;;;;5057660;28;20219;-77
2022/12/09 03:13:05;;;;;;;43.63;25.50;;;2.30;99.90;;;;;;5038995;28;20228;-78
2022/12/09 03:16:00;;;;;;;43.07;25.10;;;2.20;99.90;;;;;;5039363;28;20345;-77
2022/12/09 03:18:55;;;;;;;42.50;26.00;;;2.10;99.90;;;;;;5043619;28;20237;-77
2022/12/09 03:21:46;;;;;;;42.50;25.00;;;2.20;99.90;;;;;;5022617;28;20994;-76
2022/12/09 03:24:39;;;;;;;47.20;26.13;;;2.20;99.90;;;;;;5014847;28;20220;-77
2022/12/09 03:27:34;;;;;;;43.33;26.23;;;2.20;99.90;;;;;;5035104;28;20211;-77
2022/12/09 03:30:24;;;;;;;42.10;25.33;;;2.30;99.90;;;;;;5024692;28;20307;-77
2022/12/09 03:33:15;;;;;;;42.70;26.07;;;2.30;99.90;;;;;;5023849;28;20464;-77
2022/12/09 03:36:09;;;;;;;40.77;25.33;;;2.30;99.90;;;;;;5022448;28;20231;-77
2022/12/09 03:39:00;;;;;;;45.87;25.43;;;2.30;99.90;;;;;;5029009;28;20229;-77
2022/12/09 03:41:53;;;;;;;41.73;24.63;;;2.40;99.90;;;;;;5033377;28;20737;-77
2022/12/09 03:44:48;;;;;;;41.63;26.20;;;2.40;99.90;;;;;;5020693;28;20722;-76
2022/12/09 03:47:38;;;;;;;42.90;26.03;;;2.30;99.90;;;;;;5039924;28;20216;-75
2022/12/09 03:50:34;;;;;;;41.90;25.17;;;2.30;99.90;;;;;;5023213;28;20239;-75
2022/12/09 03:53:29;;;;;;;44.30;25.77;;;2.30;99.90;;;;;;5025144;28;20232;-74
2022/12/09 03:56:21;;;;;;;39.73;24.83;;;2.30;99.90;;;;;;5032551;28;20312;-74
2022/12/09 03:59:14;;;;;;;42.13;25.13;;;2.40;99.90;;;;;;5038233;28;20221;-74
2022/12/09 04:02:05;;;;;;;44.77;25.93;;;2.50;99.90;;;;;;5030736;28;20380;-74
2022/12/09 04:04:55;;;;;;;46.17;27.83;;;2.40;99.90;;;;;;5043500;28;20234;-75
2022/12/09 04:07:44;;;;;;;44.33;25.43;;;2.30;99.90;;;;;;5024292;28;20228;-75
2022/12/09 04:10:33;;;;;;;44.07;25.77;;;2.40;99.90;;;;;;5036937;28;20220;-76
2022/12/09 04:13:23;;;;;;;45.00;26.20;;;2.40;99.90;;;;;;5036967;28;20227;-76
2022/12/09 04:16:12;;;;;;;44.10;25.73;;;2.40;99.90;;;;;;5023780;28;20227;-75
2022/12/09 04:19:02;;;;;;;48.10;26.13;;;2.30;99.90;;;;;;5021920;28;20735;-77
2022/12/09 04:21:50;;;;;;;43.53;26.10;;;2.30;99.90;;;;;;5035985;28;20220;-78
2022/12/09 04:24:39;;;;;;;44.10;26.97;;;2.40;99.90;;;;;;5023322;28;20769;-77
2022/12/09 04:27:28;;;;;;;42.40;26.23;;;2.30;99.90;;;;;;5038255;28;20215;-74
2022/12/09 04:30:17;;;;;;;40.80;26.10;;;2.30;99.90;;;;;;5046963;28;20233;-75
2022/12/09 04:33:06;;;;;;;45.33;25.37;;;2.30;99.90;;;;;;5040346;28;20298;-75
2022/12/09 04:36:04;;;;;;;44.83;26.40;;;2.30;99.90;;;;;;5036492;28;20224;-75
2022/12/09 04:38:53;;;;;;;44.00;26.90;;;2.40;99.90;;;;;;5035075;28;20779;-75
2022/12/09 04:41:41;;;;;;;47.17;26.67;;;2.40;99.90;;;;;;5033324;28;20238;-74
2022/12/09 04:44:30;;;;;;;47.97;28.10;;;2.40;99.90;;;;;;5020343;28;20216;-75
2022/12/09 04:47:19;;;;;;;46.40;26.83;;;2.30;99.90;;;;;;5040499;28;20227;-76
2022/12/09 04:50:08;;;;;;;44.63;26.53;;;2.20;99.90;;;;;;5020571;28;20226;-76
2022/12/09 04:52:59;;;;;;;42.87;26.67;;;2.30;99.90;;;;;;5038194;28;20385;-77
2022/12/09 04:55:47;;;;;;;45.90;26.47;;;2.30;99.90;;;;;;5024678;28;20224;-75
2022/12/09 04:58:37;;;;;;;46.93;27.17;;;2.30;99.90;;;;;;5017465;28;20722;-75
2022/12/09 05:01:26;;;;;;;45.60;27.33;;;2.10;99.90;;;;;;5018654;28;20299;-75
2022/12/09 05:04:18;;;;;;;45.87;27.90;;;2.00;99.90;;;;;;5021595;28;20626;-76
2022/12/09 05:07:08;;;;;;;48.07;27.83;;;2.10;99.90;;;;;;5035385;28;20220;-75
2022/12/09 05:09:59;;;;;;;44.73;27.27;;;2.10;99.90;;;;;;5020716;28;20223;-76
2022/12/09 05:12:49;;;;;;;49.57;28.50;;;2.10;99.90;;;;;;5014454;28;20417;-77
2022/12/09 05:15:38;;;;;;;45.73;26.87;;;2.20;99.90;;;;;;5033398;28;20252;-75
2022/12/09 05:18:28;;;;;;;48.23;27.37;;;2.20;99.90;;;;;;5038764;28;20236;-76
2022/12/09 05:21:20;;;;;;;50.17;27.97;;;2.20;99.90;;;;;;5022445;28;20241;-76
2022/12/09 05:24:09;;;;;;;47.57;28.20;;;2.10;99.90;;;;;;5024301;28;20713;-76
2022/12/09 05:27:00;;;;;;;50.13;29.20;;;2.10;99.90;;;;;;5021103;28;20217;-75
2022/12/09 05:29:48;;;;;;;47.03;27.10;;;2.10;99.90;;;;;;5035890;28;20235;-75
2022/12/09 05:32:37;;;;;;;47.63;27.40;;;2.20;99.90;;;;;;5023026;28;20669;-76
2022/12/09 05:35:26;;;;;;;47.17;27.27;;;2.10;99.90;;;;;;5037538;28;20222;-76
2022/12/09 05:38:15;;;;;;;45.63;27.33;;;2.10;99.90;;;;;;5033419;28;20240;-75
2022/12/09 05:41:05;;;;;;;48.80;27.60;;;2.10;99.90;;;;;;5020307;28;20219;-75
2022/12/09 05:43:56;;;;;;;46.47;27.63;;;2.10;99.90;;;;;;5017562;28;20267;-76
2022/12/09 05:46:45;;;;;;;46.30;26.87;;;2.00;99.90;;;;;;5032940;28;20381;-74
2022/12/09 05:49:34;;;;;;;48.50;27.83;;;2.10;99.90;;;;;;5037420;28;20350;-75
2022/12/09 05:52:24;;;;;;;49.27;28.70;;;2.10;99.90;;;;;;5038786;28;20239;-75
2022/12/09 05:55:13;;;;;;;53.20;28.30;;;2.00;99.90;;;;;;5023564;28;20261;-74
2022/12/09 05:58:02;;;;;;;45.57;28.50;;;2.00;99.90;;;;;;5032714;28;20227;-75
2022/12/09 06:00:55;;;;;;;49.00;28.67;;;2.00;99.90;;;;;;5030238;28;20508;-77
2022/12/09 06:03:46;;;;;;;51.30;28.30;;;2.10;99.90;;;;;;5028916;28;20234;-75
2022/12/09 06:06:35;;;;;;;47.50;27.50;;;2.00;99.90;;;;;;5040405;28;20273;-74
2022/12/09 06:09:25;;;;;;;46.30;27.33;;;2.10;99.90;;;;;;5034259;28;20232;-76
2022/12/09 06:12:14;;;;;;;45.73;26.50;;;2.10;99.90;;;;;;5038330;28;20374;-75
2022/12/09 06:15:03;;;;;;;47.73;27.83;;;2.10;99.90;;;;;;5030132;28;20340;-75
2022/12/09 06:17:57;;;;;;;45.43;28.03;;;2.20;99.90;;;;;;5016086;28;20626;-75
2022/12/09 06:20:47;;;;;;;49.83;28.33;;;2.20;99.90;;;;;;5043446;28;20361;-76
2022/12/09 06:23:37;;;;;;;46.77;27.13;;;2.20;99.90;;;;;;5042006;28;20294;-76
2022/12/09 06:26:29;;;;;;;49.63;28.63;;;2.10;99.90;;;;;;5055085;28;20608;-76
2022/12/09 06:29:18;;;;;;;45.53;27.43;;;2.20;99.90;;;;;;5054607;28;20232;-76
2022/12/09 06:32:08;;;;;;;46.37;26.47;;;2.20;99.90;;;;;;5037407;28;20234;-76
2022/12/09 06:34:58;;;;;;;45.93;27.80;;;2.20;99.90;;;;;;5040148;28;20694;-76
2022/12/09 06:37:50;;;;;;;50.27;27.67;;;2.20;99.90;;;;;;5050893;28;20214;-76
2022/12/09 06:40:41;;;;;;;45.10;27.90;;;2.20;99.90;;;;;;5042636;28;20251;-76
2022/12/09 06:43:30;;;;;;;47.70;27.30;;;2.30;99.90;;;;;;5053870;28;20308;-77
2022/12/09 06:46:22;;;;;;;50.30;28.63;;;2.30;99.90;;;;;;5057611;28;20237;-76
2022/12/09 06:49:12;;;;;;;45.87;27.40;;;2.30;99.90;;;;;;5053002;28;20280;-76
2022/12/09 06:52:03;;;;;;;53.07;28.97;;;2.30;99.90;;;;;;5036692;28;20219;-77
2022/12/09 06:54:52;;;;;;;45.40;27.70;;;2.50;99.90;;;;;;5033519;28;20240;-76
2022/12/09 06:57:41;;;;;;;46.20;28.37;;;2.50;99.90;;;;;;5043786;28;20246;-78
2022/12/09 07:00:31;;;;;;;46.20;27.73;;;2.60;99.90;;;;;;5045133;28;20227;-78
2022/12/09 07:03:21;;;;;;;48.80;27.77;;;2.60;99.90;;;;;;5047932;28;20224;-78
2022/12/09 07:06:21;;;;;;;47.47;28.53;;;2.60;99.90;;;;;;5058014;28;20227;-75
2022/12/09 07:09:14;;;;;;;48.40;27.57;;;2.60;99.90;;;;;;5053791;28;20223;-78
2022/12/09 07:12:03;;;;;;;47.77;27.37;;;2.60;99.90;;;;;;5029342;28;20232;-75
2022/12/09 07:14:52;;;;;;;47.20;28.30;;;2.60;99.90;;;;;;5064985;28;20219;-76
2022/12/09 07:17:41;;;;;;;50.63;28.73;;;2.40;99.90;;;;;;5048379;28;20220;-76
2022/12/09 07:20:30;;;;;;;46.50;27.43;;;2.40;99.90;;;;;;5046721;28;20223;-76
2022/12/09 07:23:20;;;;;;;48.87;27.07;;;2.40;99.90;;;;;;5039710;28;20842;-79
2022/12/09 07:26:10;;;;;;;48.70;28.97;;;2.40;99.90;;;;;;5022793;28;20236;-77
2022/12/09 07:29:01;;;;;;;49.93;28.60;;;2.40;99.90;;;;;;5033368;28;20580;-77
2022/12/09 07:31:51;;;;;;;45.20;26.77;;;2.40;99.90;;;;;;5026016;28;20223;-77
2022/12/09 07:34:40;;;;;;;50.47;29.50;;;2.50;99.90;;;;;;5037555;28;20222;-79
2022/12/09 07:37:29;;;;;;;49.57;28.90;;;2.40;99.90;;;;;;5036261;28;20229;-80
2022/12/09 07:40:18;;;;;;;48.70;28.77;;;2.40;99.90;;;;;;5037846;28;20237;-76
2022/12/09 07:43:11;;;;;;;50.43;28.57;;;2.40;99.90;;;;;;5020665;28;20232;-78
2022/12/09 07:46:04;;;;;;;55.03;28.97;;;2.40;99.90;;;;;;5026513;28;20235;-78
2022/12/09 07:48:55;;;;;;;45.00;28.07;;;2.30;99.90;;;;;;5024225;28;20225;-77
2022/12/09 07:51:45;;;;;;;50.17;29.57;;;2.40;99.90;;;;;;5020996;28;20565;-77
2022/12/09 07:54:33;;;;;;;49.13;29.50;;;2.40;99.90;;;;;;5020513;28;20243;-77
2022/12/09 07:57:22;;;;;;;51.23;30.50;;;2.50;99.90;;;;;;5023330;28;20956;-77
2022/12/09 08:00:14;;;;;;;50.60;28.87;;;2.60;99.90;;;;;;5036130;28;20232;-77
2022/12/09 08:03:04;;;;;;;50.70;29.77;;;2.70;99.90;;;;;;5031044;28;20719;-76
2022/12/09 08:05:53;;;;;;;53.17;29.97;;;2.90;99.90;;;;;;5034503;28;20784;-77
2022/12/09 08:08:43;;;;;;;49.33;29.40;;;2.80;99.90;;;;;;5031852;28;20628;-76
2022/12/09 08:11:33;;;;;;;54.27;30.97;;;2.90;99.90;;;;;;5033773;28;20580;-78
2022/12/09 08:14:22;;;;;;;52.80;31.13;;;3.00;99.90;;;;;;5028912;28;20254;-75
2022/12/09 08:17:12;;;;;;;51.77;29.77;;;3.10;99.90;;;;;;5033898;28;20225;-74
2022/12/09 08:20:01;;;;;;;53.77;29.83;;;3.20;99.90;;;;;;5039656;28;20766;-76
2022/12/09 08:22:50;;;;;;;53.07;30.70;;;3.10;99.90;;;;;;5042557;28;20932;-75
2022/12/09 08:25:39;;;;;;;53.30;30.03;;;3.10;99.90;;;;;;5053353;28;20211;-76
2022/12/09 08:28:29;;;;;;;51.33;30.20;;;3.30;99.90;;;;;;5053848;28;20224;-78
2022/12/09 08:31:22;;;;;;;51.77;29.27;;;3.20;99.90;;;;;;5039178;28;20509;-77
2022/12/09 08:34:13;;;;;;;48.70;29.43;;;3.20;99.90;;;;;;5039849;28;20695;-76
2022/12/09 08:37:02;;;;;;;48.63;29.07;;;3.30;99.90;;;;;;5047856;28;20224;-77
2022/12/09 08:39:51;;;;;;;51.80;29.37;;;3.30;99.90;;;;;;5055398;28;20585;-76
2022/12/09 08:42:40;;;;;;;53.43;31.33;;;3.30;99.90;;;;;;5055812;28;20224;-76
2022/12/09 08:45:29;;;;;;;51.27;30.60;;;3.30;99.90;;;;;;5038423;28;20236;-78
2022/12/09 08:48:18;;;;;;;49.57;30.43;;;3.40;99.90;;;;;;5048303;28;20223;-77
2022/12/09 08:51:11;;;;;;;50.20;29.53;;;3.50;99.90;;;;;;5036398;28;20234;-77
2022/12/09 08:54:01;;;;;;;51.77;30.33;;;3.50;99.90;;;;;;5055000;28;20233;-77
2022/12/09 08:56:53;;;;;;;50.50;29.97;;;3.50;99.90;;;;;;5037065;28;20216;-78
2022/12/09 08:59:42;;;;;;;56.07;31.93;;;3.60;99.90;;;;;;5029545;28;20231;-76
2022/12/09 09:02:33;;;;;;;46.67;29.23;;;3.70;99.90;;;;;;5052495;28;20975;-77
2022/12/09 09:05:22;;;;;;;47.97;30.33;;;3.60;99.90;;;;;;5042333;28;20236;-77
2022/12/09 09:08:13;;;;;;;48.17;29.67;;;3.50;99.90;;;;;;5044398;28;20369;-78
2022/12/09 09:11:08;;;;;;;51.20;30.37;;;3.60;99.90;;;;;;5036498;28;20223;-77
2022/12/09 09:13:59;;;;;;;49.90;29.80;;;3.60;99.90;;;;;;5040144;28;20220;-75
2022/12/09 09:16:48;;;;;;;49.50;30.13;;;3.60;99.90;;;;;;5057954;28;20228;-77
2022/12/09 09:19:37;;;;;;;51.30;31.17;;;3.70;99.90;;;;;;5040036;28;20329;-76
2022/12/09 09:22:26;;;;;;;50.50;30.20;;;3.70;99.90;;;;;;5041503;28;20270;-76
2022/12/09 09:25:16;;;;;;;48.57;30.43;;;3.70;99.90;;;;;;5054670;28;20879;-77
2022/12/09 09:28:05;;;;;;;53.20;30.60;;;3.70;99.90;;;;;;5044190;28;20270;-75
2022/12/09 09:30:59;;;;;;;52.73;30.73;;;3.70;99.90;;;;;;5055039;28;20217;-76
2022/12/09 09:33:50;;;;;;;48.07;28.67;;;3.70;99.90;;;;;;5056939;28;20236;-74
2022/12/09 09:36:40;;;;;;;54.63;31.57;;;3.70;99.90;;;;;;5037597;28;20236;-76
2022/12/09 09:39:29;;;;;;;51.30;30.73;;;3.80;99.90;;;;;;5042325;28;20224;-75
2022/12/09 09:42:27;;;;;;;52.50;31.27;;;3.80;99.90;;;;;;5041187;28;20220;-75
2022/12/09 09:45:20;;;;;;;53.90;31.30;;;3.80;99.90;;;;;;5057090;28;20504;-75
2022/12/09 09:48:15;;;;;;;50.60;31.27;;;3.70;99.90;;;;;;5048811;28;20224;-76
2022/12/09 09:51:10;;;;;;;57.97;33.03;;;3.70;99.90;;;;;;5043771;28;20879;-74
2022/12/09 09:53:59;;;;;;;51.93;31.63;;;3.60;99.90;;;;;;5057368;28;20235;-74
2022/12/09 09:57:01;;;;;;;51.03;32.10;;;3.60;99.90;;;;;;5044345;28;20216;-75
2022/12/09 10:00:02;;;;;;;57.30;34.13;;;3.60;99.90;;;;;;5043265;28;20609;-76
2022/12/09 10:03:04;;;;;;;59.50;34.27;;;3.60;99.90;;;;;;5060021;28;20208;-74
2022/12/09 10:05:55;;;;;;;56.07;34.43;;;3.50;99.90;;;;;;5059360;28;20263;-77
2022/12/09 10:08:54;;;;;;;59.47;34.20;;;3.70;99.90;;;;;;5047255;28;20220;-76
2022/12/09 10:11:55;;;;;;;54.07;32.60;;;3.90;99.90;;;;;;5044560;28;20231;-76
2022/12/09 10:14:52;;;;;;;59.43;33.90;;;3.90;99.90;;;;;;5057780;28;20231;-74
2022/12/09 10:17:50;;;;;;;53.87;32.97;;;3.80;99.90;;;;;;5051903;28;20235;-76
2022/12/09 10:20:41;;;;;;;58.43;33.97;;;3.80;99.90;;;;;;5042843;28;20240;-75
2022/12/09 10:23:32;;;;;;;64.07;34.63;;;3.80;99.90;;;;;;5044156;28;20307;-75
2022/12/09 10:26:26;;;;;;;53.03;34.17;;;3.80;99.90;;;;;;5053596;28;20225;-75
2022/12/09 10:29:23;;;;;;;61.97;34.30;;;3.80;99.90;;;;;;5053404;28;20274;-76
2022/12/09 10:32:16;;;;;;;56.33;32.93;;;3.90;99.90;;;;;;5046034;28;20227;-76
2022/12/09 10:35:14;;;;;;;62.50;34.17;;;3.80;99.90;;;;;;5060363;28;20227;-76
2022/12/09 10:38:09;;;;;;;56.10;34.00;;;3.70;99.90;;;;;;5059041;28;20267;-78
2022/12/09 10:41:05;;;;;;;59.97;35.23;;;3.80;99.90;;;;;;5059668;28;20235;-76
2022/12/09 10:44:17;;;;;;;60.10;34.47;;;4.00;99.90;;;;;;5061736;28;20243;-75
2022/12/09 10:47:13;;;;;;;58.37;34.03;;;4.10;99.90;;;;;;5060671;28;20221;-76
2022/12/09 10:50:04;;;;;;;61.10;34.43;;;4.10;99.90;;;;;;5047394;28;20212;-77
2022/12/09 10:52:56;;;;;;;57.83;34.90;;;4.20;99.90;;;;;;5061135;28;20219;-77
2022/12/09 10:55:50;;;;;;;59.13;35.83;;;4.30;99.90;;;;;;5059350;28;20303;-77
2022/12/09 10:58:39;;;;;;;61.90;36.40;;;4.30;99.90;;;;;;5050179;28;20232;-77
2022/12/09 11:01:28;;;;;;;60.27;35.53;;;4.30;99.90;;;;;;5055195;28;20235;-77
2022/12/09 11:04:22;;;;;;;58.63;35.43;;;4.40;99.90;;;;;;5044275;28;20297;-73
2022/12/09 11:07:16;;;;;;;59.33;35.43;;;4.30;99.90;;;;;;5061890;28;20736;-76
2022/12/09 11:10:17;;;;;;;62.53;35.13;;;4.30;99.90;;;;;;5044741;28;20332;-77
2022/12/09 11:13:14;;;;;;;58.50;35.43;;;4.30;99.90;;;;;;5048325;28;20231;-77
2022/12/09 11:16:06;;;;;;;62.40;37.07;;;4.30;99.90;;;;;;5049912;28;20874;-77
2022/12/09 11:18:55;;;;;;;62.70;35.67;;;4.30;99.90;;;;;;5056415;28;20339;-77
2022/12/09 11:21:45;;;;;;;68.90;35.47;;;4.30;99.90;;;;;;5041398;28;20231;-76
2022/12/09 11:24:34;;;;;;;61.30;35.67;;;4.40;99.90;;;;;;5057690;28;20252;-78
2022/12/09 11:27:30;;;;;;;57.60;34.33;;;4.40;99.90;;;;;;5044780;28;20220;-78
2022/12/09 11:30:21;;;;;;;61.03;35.17;;;4.50;99.90;;;;;;5059602;28;20266;-77
2022/12/09 11:33:23;;;;;;;57.40;35.07;;;4.50;99.90;;;;;;5054510;28;20216;-78
2022/12/09 11:36:21;;;;;;;65.37;41.97;;;4.50;99.90;;;;;;5045894;28;20333;-78
2022/12/09 11:39:28;;;;;;;68.57;36.77;;;4.50;99.90;;;;;;5044065;28;20298;-77
2022/12/09 11:42:21;;;;;;;61.40;36.00;;;4.60;99.90;;;;;;5059550;28;20236;-77
2022/12/09 11:45:22;;;;;;;66.33;37.13;;;4.60;99.90;;;;;;5050608;28;20391;-77
2022/12/09 11:48:28;;;;;;;59.70;36.13;;;4.50;99.90;;;;;;5063102;28;20711;-77
2022/12/09 11:51:29;;;;;;;66.17;36.93;;;4.40;99.90;;;;;;5058301;28;20734;-76
2022/12/09 11:54:22;;;;;;;55.90;35.53;;;4.50;99.90;;;;;;5044442;28;20224;-78
2022/12/09 11:57:21;;;;;;;59.77;34.40;;;4.50;99.90;;;;;;5056879;28;20223;-76
2022/12/09 12:00:30;;;;;;;59.67;33.93;;;4.50;99.90;;;;;;5042852;28;20223;-78
2022/12/09 12:03:23;;;;;;;56.10;34.40;;;4.50;99.90;;;;;;5053618;28;20239;-78
2022/12/09 12:06:16;;;;;;;53.67;33.67;;;4.40;99.90;;;;;;5053012;28;20274;-78
2022/12/09 12:09:12;;;;;;;56.57;34.13;;;4.50;99.90;;;;;;5045158;28;20224;-78
2022/12/09 12:12:06;;;;;;;65.63;38.63;;;4.60;99.90;;;;;;5062967;28;20565;-78
2022/12/09 12:14:58;;;;;;;57.93;35.80;;;4.60;99.90;;;;;;5045272;28;20228;-78
2022/12/09 12:17:52;;;;;;;58.77;35.67;;;4.60;99.90;;;;;;5054423;28;20221;-78
2022/12/09 12:21:16;;;;;;;61.17;34.80;;;4.50;99.90;;;;;;5044994;28;20224;-79
2022/12/09 12:24:22;;;;;;;56.33;33.57;;;4.60;99.90;;;;;;5040826;28;20572;-77
2022/12/09 12:27:23;;;;;;;57.97;34.17;;;4.60;99.90;;;;;;5046884;28;20220;-75
2022/12/09 12:30:14;;;;;;;56.70;34.37;;;4.60;99.90;;;;;;5043150;28;20245;-78
2022/12/09 12:33:21;;;;;;;61.73;34.97;;;4.60;99.90;;;;;;5069005;28;20622;-77
2022/12/09 12:36:36;;;;;;;59.60;35.10;;;4.60;99.90;;;;;;5057691;28;20243;-77
2022/12/09 12:39:38;;;;;;;57.17;34.93;;;4.50;99.90;;;;;;5037228;28;20228;-78
2022/12/09 12:42:38;;;;;;;59.57;34.53;;;4.50;99.90;;;;;;5053787;28;20240;-76
2022/12/09 12:48:57;;;;;;;61.40;34.87;;;4.60;99.90;;;;;;5033219;28;20220;-76
2022/12/09 12:51:59;;;;;;;64.80;35.50;;;4.70;99.90;;;;;;5059325;28;20213;-78
2022/12/09 12:54:57;;;;;;;59.67;35.03;;;4.60;99.90;;;;;;5052588;28;20257;-77
2022/12/09 12:57:56;;;;;;;62.03;37.40;;;4.70;99.90;;;;;;5060695;28;20229;-78
2022/12/09 13:00:59;;;;;;;56.13;35.10;;;4.60;99.90;;;;;;5045389;28;20255;-76
2022/12/09 13:04:03;;;;;;;58.70;35.97;;;4.70;99.90;;;;;;5063558;28;20305;-76
2022/12/09 13:06:58;;;;;;;62.97;35.97;;;4.60;99.90;;;;;;5044673;28;20228;-77
2022/12/09 13:09:52;;;;;;;61.67;35.40;;;4.70;99.90;;;;;;5056748;28;20780;-77
2022/12/09 13:12:55;;;;;;;56.13;34.37;;;4.70;99.90;;;;;;5059281;28;20212;-77
2022/12/09 13:15:50;;;;;;;58.20;35.93;;;4.60;99.90;;;;;;5056735;28;20235;-76
2022/12/09 13:18:40;;;;;;;57.43;35.57;;;4.60;99.90;;;;;;5051243;28;20242;-77
2022/12/09 13:21:30;;;;;;;68.77;37.83;;;4.60;99.90;;;;;;5043377;28;20219;-78
2022/12/09 13:24:26;;;;;;;65.37;37.37;;;4.60;99.90;;;;;;5040056;28;20232;-78
2022/12/09 13:27:17;;;;;;;61.83;37.20;;;4.50;99.90;;;;;;5042257;28;20232;-77
2022/12/09 13:30:13;;;;;;;62.03;37.87;;;4.40;99.90;;;;;;5042857;28;20243;-76
2022/12/09 13:33:27;;;;;;;64.10;37.20;;;4.40;99.90;;;;;;5045257;28;20228;-77
2022/12/09 13:36:21;;;;;;;64.27;36.87;;;4.40;99.90;;;;;;5049533;28;20741;-75
2022/12/09 13:39:12;;;;;;;66.07;38.87;;;4.30;99.90;;;;;;5045653;28;20216;-76
2022/12/09 13:45:16;;;;;;;63.60;37.57;;;4.40;99.90;;;;;;5040316;28;20738;-76
2022/12/09 13:48:31;;;;;;;64.20;37.63;;;4.20;99.90;;;;;;5046102;28;20228;-75
2022/12/09 13:51:21;;;;;;;61.50;37.07;;;4.20;99.90;;;;;;5049928;28;20681;-75
2022/12/09 13:54:16;;;;;;;68.90;38.47;;;4.20;99.90;;;;;;5042210;28;20224;-78
2022/12/09 13:57:16;;;;;;;64.27;38.97;;;4.10;99.90;;;;;;5053722;28;20598;-78
2022/12/09 14:00:15;;;;;;;62.40;38.53;;;4.10;99.90;;;;;;5041950;28;20215;-79
2022/12/09 14:03:19;;;;;;;65.13;37.60;;;4.10;99.90;;;;;;5046105;28;20227;-80
2022/12/09 14:06:20;;;;;;;64.03;37.83;;;4.20;99.90;;;;;;5043958;28;20743;-78
2022/12/09 14:09:32;;;;;;;67.27;39.53;;;4.20;99.90;;;;;;5038906;28;20212;-78
2022/12/09 14:12:54;;;;;;;72.37;38.97;;;4.20;99.90;;;;;;5059385;28;20228;-77
2022/12/09 14:15:45;;;;;;;70.77;38.47;;;4.20;99.90;;;;;;5040752;28;20235;-81
2022/12/09 14:18:34;;;;;;;63.73;37.97;;;4.00;99.90;;;;;;5064308;28;20710;-80
2022/12/09 14:21:26;;;;;;;66.17;38.17;;;4.00;99.90;;;;;;5039307;28;20227;-81
2022/12/09 14:24:35;;;;;;;63.30;39.07;;;4.20;99.90;;;;;;5046393;28;20287;-80
2022/12/09 14:27:26;;;;;;;66.23;37.97;;;4.20;99.90;;;;;;5057084;28;20228;-79
2022/12/09 14:30:48;;;;;;;68.50;38.40;;;4.20;99.90;;;;;;5054386;28;20231;-81
2022/12/09 14:33:40;;;;;;;66.67;38.53;;;4.20;99.90;;;;;;5064866;28;20219;-81
2022/12/09 14:36:32;;;;;;;69.77;40.07;;;4.30;99.90;;;;;;5036018;28;20220;-80
2022/12/09 14:39:27;;;;;;;67.37;39.57;;;4.10;99.90;;;;;;5055398;28;20224;-79
2022/12/09 14:42:29;;;;;;;70.03;40.50;;;4.00;99.90;;;;;;5053239;28;20236;-80
2022/12/09 14:45:28;;;;;;;63.83;38.47;;;4.10;99.90;;;;;;5036635;28;20560;-79
2022/12/09 14:48:22;;;;;;;73.30;40.23;;;4.10;99.90;;;;;;5055193;28;20227;-78
2022/12/09 14:51:18;;;;;;;71.73;40.73;;;4.00;99.90;;;;;;5039458;28;22188;-79
2022/12/09 14:54:14;;;;;;;68.53;39.80;;;4.10;99.90;;;;;;5057541;28;20274;-80